createdAt,value
2022-10-11T00:04:20.188Z,7.30
2022-10-11T00:09:24.355Z,7.20
2022-10-11T00:14:40.398Z,7.55
2022-10-11T00:19:56.537Z,6.82
2022-10-11T00:25:14.025Z,8.27
2022-10-11T00:30:31.229Z,8.68
2022-10-11T00:35:50.051Z,8.18
2022-10-11T00:41:09.416Z,9.43
2022-10-11T00:46:32.405Z,10.32
2022-10-11T00:51:54.188Z,10.73
2022-10-11T00:57:02.448Z,10.15
2022-10-11T01:02:08.080Z,8.55
2022-10-11T01:07:14.231Z,8.23
2022-10-11T01:12:21.223Z,7.88
2022-10-11T01:17:34.177Z,7.18
2022-10-11T01:23:08.462Z,7.03
2022-10-11T01:28:28.055Z,7.43
2022-10-11T01:38:47.264Z,6.68
2022-10-11T01:43:53.305Z,7.53
2022-10-11T01:49:01.229Z,7.28
2022-10-11T01:55:03.907Z,6.30
2022-10-11T02:00:17.402Z,6.55
2022-10-11T02:05:41.539Z,7.40
2022-10-11T02:11:04.774Z,7.10
2022-10-11T02:16:27.643Z,7.82
2022-10-11T02:21:48.331Z,8.65
2022-10-11T02:27:09.476Z,7.53
2022-10-11T02:32:27.740Z,7.88
2022-10-11T02:37:52.741Z,6.85
2022-10-11T02:43:13.882Z,7.07
2022-10-11T02:48:31.734Z,7.45
2022-10-11T02:53:48.317Z,6.88
2022-10-11T02:59:04.966Z,7.75
2022-10-11T03:04:21.553Z,6.97
2022-10-11T03:09:38.078Z,6.57
2022-10-11T03:14:56.388Z,7.38
2022-10-11T03:20:00.724Z,7.78
2022-10-11T03:25:05.167Z,8.43
2022-10-11T03:30:17.313Z,6.93
2022-10-11T03:35:22.747Z,8.20
2022-10-11T03:40:27.046Z,8.73
2022-10-11T03:45:32.456Z,10.95
2022-10-11T03:50:38.574Z,11.77
2022-10-11T03:55:43.364Z,14.35
2022-10-11T04:00:48.756Z,13.63
2022-10-11T04:05:52.882Z,12.27
2022-10-11T04:10:56.904Z,13.75
2022-10-11T04:16:02.594Z,9.68
2022-10-11T04:21:20.153Z,9.70
2022-10-11T04:26:38.972Z,8.68
2022-10-11T04:31:55.201Z,8.32
2022-10-11T04:37:11.671Z,9.40
2022-10-11T04:42:28.602Z,10.93
2022-10-11T04:48:09.879Z,10.27
2022-10-11T04:53:26.419Z,21.63
2022-10-11T04:58:42.956Z,10.98
2022-10-11T05:03:47.074Z,17.13
2022-10-11T05:08:51.169Z,13.80
2022-10-11T05:13:57.109Z,10.85
2022-10-11T05:19:01.251Z,10.30
2022-10-11T05:24:05.842Z,11.25
2022-10-11T05:29:11.648Z,10.65
2022-10-11T05:34:15.623Z,11.18
2022-10-11T05:39:19.604Z,10.38
2022-10-11T05:44:25.342Z,12.25
2022-10-11T05:49:29.849Z,11.85
2022-10-11T05:54:34.758Z,11.25
2022-10-11T05:59:41.418Z,11.68
2022-10-11T06:04:45.430Z,9.80
2022-10-11T06:09:49.641Z,9.40
2022-10-11T06:14:59.032Z,8.85
2022-10-11T06:25:08.073Z,9.20
2022-10-11T06:30:14.795Z,9.50
2022-10-11T06:35:18.900Z,9.32
2022-10-11T06:40:24.292Z,10.93
2022-10-11T06:45:29.651Z,8.98
2022-10-11T06:50:57.908Z,9.35
2022-10-11T06:56:04.432Z,10.57
2022-10-11T07:01:13.128Z,9.80
2022-10-11T07:06:18.935Z,9.67
2022-10-11T07:11:25.450Z,10.05
2022-10-11T07:16:32.094Z,10.10
2022-10-11T07:21:36.863Z,10.57
2022-10-11T07:26:41.222Z,10.63
2022-10-11T07:31:46.738Z,9.48
2022-10-11T07:36:59.441Z,10.10
2022-10-11T07:42:03.646Z,11.43
2022-10-11T07:47:11.434Z,13.23
2022-10-11T07:52:15.675Z,10.55
2022-10-11T07:57:31.022Z,10.35
2022-10-11T08:03:07.201Z,10.27
2022-10-11T08:08:49.040Z,10.43
2022-10-11T08:14:22.215Z,12.02
2022-10-11T08:19:54.605Z,9.45
2022-10-11T08:25:29.492Z,11.63
2022-10-11T08:31:03.208Z,10.23
2022-10-11T08:36:38.836Z,11.48
2022-10-11T08:42:48.474Z,11.73
2022-10-11T08:48:21.432Z,11.27
2022-10-11T08:53:55.455Z,13.63
2022-10-11T08:59:37.616Z,13.40
2022-10-11T09:04:57.673Z,11.35
2022-10-11T09:10:20.990Z,9.88
2022-10-11T09:15:40.528Z,12.57
2022-10-11T09:21:03.655Z,12.20
2022-10-11T09:26:16.081Z,11.32
2022-10-11T09:31:20.525Z,9.73
2022-10-11T09:36:32.688Z,9.60
2022-10-11T09:41:44.290Z,10.02
2022-10-11T09:46:51.056Z,9.43
2022-10-11T09:51:58.955Z,9.60
2022-10-11T09:57:03.083Z,9.73
2022-10-11T10:02:22.225Z,9.15
2022-10-11T10:07:28.694Z,8.98
2022-10-11T10:12:33.993Z,9.57
2022-10-11T10:17:38.100Z,10.02
2022-10-11T10:22:48.112Z,8.63
2022-10-11T10:28:00.256Z,8.93
2022-10-11T10:33:08.890Z,8.88
2022-10-11T10:38:26.597Z,8.05
2022-10-11T10:43:36.241Z,9.98
2022-10-11T10:49:23.649Z,7.60
2022-10-11T10:54:18.997Z,7.28
2022-10-11T10:59:41.102Z,9.43
2022-10-11T11:04:51.970Z,7.78
2022-10-11T11:10:04.036Z,8.20
2022-10-11T11:15:14.474Z,8.55
2022-10-11T11:20:29.885Z,8.98
2022-10-11T11:25:45.214Z,8.63
2022-10-11T11:30:59.257Z,7.43
2022-10-11T11:36:07.771Z,8.05
2022-10-11T11:41:19.047Z,7.78
2022-10-11T11:46:28.248Z,9.43
2022-10-11T11:51:35.548Z,9.45
2022-10-11T11:56:55.182Z,9.32
2022-10-11T12:02:17.701Z,9.00
2022-10-11T12:07:24.837Z,9.35
2022-10-11T12:12:36.738Z,9.82
2022-10-11T12:18:03.561Z,8.98
2022-10-11T12:23:40.130Z,10.80
2022-10-11T12:29:17.529Z,10.82
2022-10-11T12:34:35.436Z,9.95
2022-10-11T12:39:50.905Z,9.82
2022-10-11T12:45:32.237Z,8.75
2022-10-11T12:50:46.644Z,9.13
2022-10-11T12:55:59.215Z,9.20
2022-10-11T13:01:19.121Z,9.05
2022-10-11T13:06:28.761Z,9.85
2022-10-11T13:11:35.767Z,10.05
2022-10-11T13:17:00.332Z,10.85
2022-10-11T13:22:08.336Z,10.55
2022-10-11T13:27:22.713Z,9.68
2022-10-11T13:32:30.950Z,10.77
2022-10-11T13:37:43.678Z,11.80
2022-10-11T13:42:50.923Z,11.10
2022-10-11T13:47:57.942Z,11.38
2022-10-11T13:53:04.318Z,11.68
2022-10-11T13:58:18.957Z,12.50
2022-10-11T14:03:27.064Z,12.82
2022-10-11T14:08:40.953Z,13.27
2022-10-11T14:13:48.057Z,13.02
2022-10-11T14:19:10.070Z,13.95
2022-10-11T14:24:14.936Z,12.32
2022-10-11T14:29:23.672Z,12.45
2022-10-11T14:34:30.191Z,14.10
2022-10-11T14:39:35.502Z,15.82
2022-10-11T14:44:42.125Z,17.05
2022-10-11T14:49:48.618Z,15.70
2022-10-11T14:54:52.741Z,14.07
2022-10-11T14:59:56.781Z,13.80
2022-10-11T15:05:02.667Z,12.40
2022-10-11T15:10:18.757Z,19.80
2022-10-11T15:15:25.967Z,15.35
2022-10-11T15:20:36.302Z,13.93
2022-10-11T15:25:44.593Z,14.52
2022-10-11T15:30:48.722Z,13.82
2022-10-11T15:35:54.658Z,14.00
2022-10-11T15:41:00.117Z,13.45
2022-10-11T15:46:05.083Z,13.38
2022-10-11T15:51:11.448Z,14.30
2022-10-11T15:56:18.938Z,14.88
2022-10-11T16:01:22.928Z,14.55
2022-10-11T16:06:30.268Z,21.30
2022-10-11T16:11:34.452Z,19.75
2022-10-11T16:16:38.766Z,22.05
2022-10-11T16:21:44.467Z,29.92
2022-10-11T16:26:48.552Z,43.25
2022-10-11T16:31:52.678Z,27.98
2022-10-11T16:36:58.390Z,28.80
2022-10-11T16:42:03.299Z,26.95
2022-10-11T16:47:08.113Z,23.02
2022-10-11T16:52:15.149Z,43.95
2022-10-11T16:57:21.898Z,39.90
2022-10-11T17:02:32.145Z,33.25
2022-10-11T17:07:38.118Z,30.67
2022-10-11T17:12:47.720Z,30.85
2022-10-11T17:17:57.023Z,36.10
2022-10-11T17:23:02.930Z,24.58
2022-10-11T17:28:07.178Z,23.17
2022-10-11T17:33:12.730Z,21.48
2022-10-11T17:38:19.840Z,18.17
2022-10-11T17:43:24.214Z,19.20
2022-10-11T17:48:29.888Z,19.50
2022-10-11T17:53:37.555Z,19.08
2022-10-11T17:58:45.582Z,19.67
2022-10-11T18:03:52.746Z,21.92
2022-10-11T18:09:01.088Z,18.98
2022-10-11T18:14:08.267Z,22.00
2022-10-11T18:19:14.881Z,18.85
2022-10-11T18:24:22.290Z,22.15
2022-10-11T18:29:26.877Z,24.83
2022-10-11T18:34:31.153Z,25.48
2022-10-11T18:39:36.823Z,17.90
2022-10-11T18:44:40.899Z,19.27
2022-10-11T18:49:45.062Z,16.60
2022-10-11T18:54:50.455Z,16.80
2022-10-11T18:59:55.454Z,26.75
2022-10-11T19:04:59.760Z,24.17
2022-10-11T19:10:05.961Z,23.95
2022-10-11T19:15:11.995Z,33.22
2022-10-11T19:20:16.807Z,24.85
2022-10-11T19:25:24.659Z,21.17
2022-10-11T19:30:29.198Z,19.73
2022-10-11T19:35:34.431Z,17.25
2022-10-11T19:40:39.996Z,15.82
2022-10-11T19:45:44.797Z,16.23
2022-10-11T19:50:48.927Z,20.00
2022-10-11T19:55:54.626Z,19.50
2022-10-11T20:01:04.639Z,16.88
2022-10-11T20:06:09.783Z,16.52
2022-10-11T20:11:15.655Z,16.55
2022-10-11T20:16:23.079Z,18.27
2022-10-11T20:21:30.031Z,17.05
2022-10-11T20:26:36.348Z,14.88
2022-10-11T20:31:40.932Z,14.20
2022-10-11T20:36:48.895Z,13.45
2022-10-11T20:41:54.517Z,15.93
2022-10-11T20:47:03.740Z,15.95
2022-10-11T20:52:08.412Z,14.23
2022-10-11T20:57:14.405Z,14.93
2022-10-11T21:02:19.161Z,14.60
2022-10-11T21:07:23.400Z,20.77
2022-10-11T21:12:28.775Z,18.15
2022-10-11T21:17:32.841Z,17.08
2022-10-11T21:22:37.189Z,17.92
2022-10-11T21:27:43.119Z,19.17
2022-10-11T21:32:47.169Z,19.17
2022-10-11T21:37:51.235Z,20.20
2022-10-11T21:42:56.864Z,20.08
2022-10-11T21:48:00.897Z,23.25
2022-10-11T21:53:04.988Z,20.83
2022-10-11T21:58:10.470Z,16.70
2022-10-11T22:03:14.450Z,20.83
2022-10-11T22:08:19.814Z,19.83
2022-10-11T22:13:25.754Z,16.85
2022-10-11T22:18:33.315Z,17.45
2022-10-11T22:23:38.025Z,16.35
2022-10-11T22:28:44.190Z,16.55
2022-10-11T22:33:48.521Z,17.02
2022-10-11T22:38:52.844Z,16.33
2022-10-11T22:43:58.317Z,15.07
2022-10-11T22:49:02.349Z,12.32
2022-10-11T22:54:06.601Z,11.73
2022-10-11T22:59:12.946Z,11.80
2022-10-11T23:04:17.727Z,12.50
2022-10-11T23:09:21.951Z,12.32
2022-10-11T23:14:28.265Z,14.52
2022-10-11T23:19:32.224Z,15.50
2022-10-11T23:24:36.234Z,14.90
2022-10-11T23:29:41.756Z,13.90
2022-10-11T23:34:46.773Z,14.52
2022-10-11T23:39:52.078Z,14.85
2022-10-11T23:44:57.396Z,13.02
2022-10-11T23:50:01.896Z,13.50
2022-10-11T23:55:06.673Z,13.60
